Portada
METAR-TAF:

METAR-TAF

Aeroports :

Dhahran, Aràbia Saudita

latitud: 26-16N, longitud: 050-09E, altitud: 26 m

Observació

L'informe es va fer fa 59 minuts, a les 04:00 UTC
Vent 9 kt del Nord-Oest
Temperatura 14°C
Humitat 77%
Pressió 1014 hPa
Visibilitat: 5000 m
calitja

METAR: OEDR 210400Z 31009KT 5000 HZ NSC 14/10 Q1014

Hora: 07:59 (04:59 UTC)

Pronòstic

L'informe es va fer fa 6 hores i 59 minuts, a les 22:00 UTC
Pronòstic vàlid del 21 a les 00 UTC al 22 a les 06 UTC
Vent 8 kt del Nord/Nord-Oest
Visibilitat 10 km o més
sense núvols per sota de 1500 mi sense presència de cumulonimbus.
Evolucionant progressivament
l' 21 a les 10 UTC al 21 a les 12 UTC
Vent 10 kt del Nord-Est

TAF: OEDR 202200Z 2100/2206 34008KT CAVOK BECMG 2110/2112 04010KT

Observacions i pronòstics meteorològics de més de 4000 aeroports (METAR i TAF).

Les estacions disponibles són els punts grocs i vermells al mapa.

Posi el ratolí al punt desitjat per veure el nom de l'estació.

Feu clic per veure les observacions i els pronòstics meteorològics.

Per canviar el mapa: feu clic els botons verds amb una creu de color negre per apropar; al botó verd amb un guió per allunyar la imatge; o en les fletxes verdes per a mapes adjacents.


METAR-TAF: